Time;durP1;ratioP1;P1;durP2;ratioP2;P2;SDS_P1;SDS_P2;PMS_P1;PMS_P2;Temp;Humidity;BMP_temperature;BMP_pressure;BME280_temperature;BME280_humidity;BME280_pressure;Samples;Min_cycle;Max_cycle;Signal;HPM_P1;HPM_P2
2021/05/04 00:02:19;;;;;;;7.32;4.95;;;4.50;99.90;;;;;;6124185;23;20097;-76
2021/05/04 00:04:45;;;;;;;8.07;4.95;;;4.50;99.90;;;;;;6147561;23;20110;-75
2021/05/04 00:07:17;;;;;;;6.72;4.50;;;4.50;99.90;;;;;;6122722;23;20060;-75
2021/05/04 00:09:44;;;;;;;4.82;4.00;;;4.50;99.90;;;;;;6122523;23;20141;-75
2021/05/04 00:12:10;;;;;;;8.10;4.15;;;4.50;99.90;;;;;;6123633;23;20510;-75
2021/05/04 00:14:41;;;;;;;7.35;4.25;;;4.50;99.90;;;;;;6124689;23;20101;-75
2021/05/04 00:17:08;;;;;;;6.47;4.25;;;4.50;99.90;;;;;;6124881;23;20022;-75
2021/05/04 00:19:39;;;;;;;5.32;4.30;;;4.40;99.90;;;;;;6123953;23;20426;-76
2021/05/04 00:22:11;;;;;;;5.20;4.28;;;4.40;99.90;;;;;;6124668;23;20044;-77
2021/05/04 00:24:37;;;;;;;7.07;4.70;;;4.40;99.90;;;;;;6125999;23;20045;-77
2021/05/04 00:27:04;;;;;;;5.55;4.30;;;4.40;99.90;;;;;;6125897;23;20049;-76
2021/05/04 00:29:30;;;;;;;5.70;4.30;;;4.40;99.90;;;;;;6124316;23;20052;-76
2021/05/04 00:32:01;;;;;;;6.70;4.10;;;4.40;99.90;;;;;;6124201;23;20440;-75
2021/05/04 00:34:32;;;;;;;5.60;4.18;;;4.40;99.90;;;;;;6124865;23;20014;-76
2021/05/04 00:36:59;;;;;;;6.68;4.53;;;4.40;99.90;;;;;;6124653;23;20057;-75
2021/05/04 00:39:30;;;;;;;6.65;4.65;;;4.40;99.90;;;;;;6125134;23;20018;-75
2021/05/04 00:41:56;;;;;;;6.28;4.55;;;4.50;99.90;;;;;;6100129;23;20050;-75
2021/05/04 00:44:27;;;;;;;4.93;4.18;;;4.40;99.90;;;;;;6125944;23;20100;-76
2021/05/04 00:46:58;;;;;;;6.95;4.15;;;4.40;99.90;;;;;;6124685;23;20551;-77
2021/05/04 00:49:25;;;;;;;5.13;3.83;;;4.40;99.90;;;;;;6098931;23;20113;-76
2021/05/04 00:51:56;;;;;;;8.38;4.32;;;4.40;99.90;;;;;;6124327;23;20045;-75
2021/05/04 00:54:28;;;;;;;5.88;4.43;;;4.40;99.90;;;;;;6124101;23;20124;-76
2021/05/04 00:57:00;;;;;;;5.75;5.00;;;4.50;99.90;;;;;;6125473;23;20084;-76
2021/05/04 00:59:27;;;;;;;9.40;4.22;;;4.50;99.90;;;;;;6124981;23;20026;-76
2021/05/04 01:01:58;;;;;;;5.38;4.03;;;4.50;99.90;;;;;;6125149;23;20056;-75
2021/05/04 01:04:32;;;;;;;6.32;4.85;;;4.60;99.90;;;;;;6099988;23;20053;-77
2021/05/04 01:07:03;;;;;;;5.93;4.35;;;4.60;99.90;;;;;;6123636;23;20097;-76
2021/05/04 01:09:34;;;;;;;5.53;4.65;;;4.60;99.90;;;;;;6124417;23;20014;-77
2021/05/04 01:12:00;;;;;;;5.22;4.18;;;4.70;99.90;;;;;;6121944;23;20564;-76
2021/05/04 01:14:32;;;;;;;4.68;3.92;;;4.70;99.90;;;;;;6123347;23;20416;-75
2021/05/04 01:17:03;;;;;;;5.15;4.47;;;4.70;99.90;;;;;;6123245;23;20096;-76
2021/05/04 01:19:34;;;;;;;4.65;4.18;;;4.80;99.90;;;;;;6123142;23;20046;-75
2021/05/04 01:22:00;;;;;;;6.05;4.32;;;4.70;99.90;;;;;;6098689;23;20395;-75
2021/05/04 01:24:32;;;;;;;4.82;4.10;;;4.80;99.90;;;;;;6123700;23;20045;-76
2021/05/04 01:27:03;;;;;;;7.80;5.05;;;4.80;99.90;;;;;;6123429;23;20386;-75
2021/05/04 01:29:34;;;;;;;6.57;4.65;;;4.90;99.90;;;;;;6123337;23;20728;-76
2021/05/04 01:32:06;;;;;;;6.90;4.63;;;4.80;99.90;;;;;;6123894;23;20104;-76
2021/05/04 01:34:33;;;;;;;5.57;4.80;;;4.80;99.90;;;;;;6123569;23;20014;-76
2021/05/04 01:37:04;;;;;;;7.03;4.47;;;4.80;99.90;;;;;;6123668;23;20522;-75
2021/05/04 01:39:44;;;;;;;4.95;4.28;;;4.80;99.90;;;;;;6123587;23;20432;-75
2021/05/04 01:42:18;;;;;;;5.25;4.25;;;4.90;99.90;;;;;;6123151;23;20101;-75
2021/05/04 01:44:50;;;;;;;9.98;5.32;;;4.90;99.90;;;;;;6124789;23;20358;-75
2021/05/04 01:47:21;;;;;;;4.55;3.97;;;4.90;99.90;;;;;;6122745;23;20045;-76
2021/05/04 01:49:47;;;;;;;5.38;4.30;;;4.90;99.90;;;;;;6122366;23;20420;-75
2021/05/04 01:52:13;;;;;;;6.45;4.03;;;4.90;99.90;;;;;;6122645;23;20412;-76
2021/05/04 01:54:46;;;;;;;5.45;4.22;;;4.90;99.90;;;;;;6123581;23;20113;-77
2021/05/04 01:57:12;;;;;;;5.70;4.43;;;4.90;99.90;;;;;;6123583;23;20060;-76
2021/05/04 01:59:43;;;;;;;4.68;4.00;;;4.90;99.90;;;;;;6123383;23;20079;-76
2021/05/04 02:02:10;;;;;;;7.45;5.20;;;4.90;99.90;;;;;;6123543;23;20061;-75
2021/05/04 02:04:36;;;;;;;6.05;4.57;;;5.00;99.90;;;;;;6124957;23;20404;-76
2021/05/04 02:07:03;;;;;;;4.88;4.43;;;5.00;99.90;;;;;;6123566;23;20025;-76
2021/05/04 02:09:35;;;;;;;5.25;3.72;;;5.00;99.90;;;;;;6124526;23;20098;-76
2021/05/04 02:12:01;;;;;;;5.03;4.50;;;4.90;99.90;;;;;;6125014;23;20025;-76
2021/05/04 02:14:33;;;;;;;5.65;4.38;;;4.80;99.90;;;;;;6123363;23;20065;-76
2021/05/04 02:17:04;;;;;;;4.60;3.97;;;4.80;99.90;;;;;;6123420;23;20022;-77
2021/05/04 02:19:37;;;;;;;4.82;4.22;;;4.80;99.90;;;;;;6122869;23;20082;-75
2021/05/04 02:22:08;;;;;;;5.97;5.05;;;4.70;99.90;;;;;;6123888;23;20045;-76
2021/05/04 02:24:39;;;;;;;5.22;3.92;;;4.70;99.90;;;;;;6124952;23;20041;-76
2021/05/04 02:27:11;;;;;;;4.63;4.13;;;4.60;99.90;;;;;;6123271;23;20049;-75
2021/05/04 02:29:42;;;;;;;5.18;4.55;;;4.60;99.90;;;;;;6124568;23;20084;-75
2021/05/04 02:32:13;;;;;;;5.20;4.47;;;4.50;99.90;;;;;;6123301;23;20018;-79
2021/05/04 02:34:44;;;;;;;10.18;4.53;;;4.50;99.90;;;;;;6100339;23;20451;-76
2021/05/04 02:37:16;;;;;;;7.22;4.35;;;4.50;99.90;;;;;;6123114;23;20104;-77
2021/05/04 02:39:42;;;;;;;5.80;4.70;;;4.50;99.90;;;;;;6122894;23;20053;-78
2021/05/04 02:42:13;;;;;;;5.13;4.07;;;4.50;99.90;;;;;;6123360;23;20056;-75
2021/05/04 02:44:39;;;;;;;5.70;5.00;;;4.50;99.90;;;;;;6123362;23;20022;-76
2021/05/04 02:47:05;;;;;;;5.80;4.32;;;4.50;99.90;;;;;;6124486;23;20014;-75
2021/05/04 02:49:37;;;;;;;5.25;4.10;;;4.50;99.90;;;;;;6122544;23;20100;-76
2021/05/04 02:52:03;;;;;;;4.47;4.00;;;4.50;99.90;;;;;;6098913;23;20506;-75
2021/05/04 02:54:34;;;;;;;6.18;4.53;;;4.50;99.90;;;;;;6123440;23;20460;-76
2021/05/04 02:57:01;;;;;;;5.82;4.60;;;4.50;99.90;;;;;;6123097;23;20048;-78
2021/05/04 02:59:32;;;;;;;10.70;7.72;;;4.50;99.90;;;;;;6123023;23;20050;-75
2021/05/04 03:02:03;;;;;;;8.73;6.57;;;4.40;99.90;;;;;;6099779;23;20109;-77
2021/05/04 03:04:30;;;;;;;5.25;4.18;;;4.40;99.90;;;;;;6123485;23;20097;-76
2021/05/04 03:06:56;;;;;;;5.60;3.90;;;4.30;99.90;;;;;;6123144;23;20037;-76
2021/05/04 03:09:27;;;;;;;4.75;3.90;;;4.40;99.90;;;;;;6099137;23;20045;-76
2021/05/04 03:11:59;;;;;;;5.68;3.95;;;4.50;99.90;;;;;;6123034;23;20081;-75
2021/05/04 03:14:30;;;;;;;6.45;4.00;;;4.60;99.90;;;;;;6123219;23;20118;-78
2021/05/04 03:17:01;;;;;;;4.63;3.90;;;4.90;99.90;;;;;;6122909;23;20150;-75
2021/05/04 03:19:28;;;;;;;4.40;3.97;;;5.20;99.90;;;;;;6122288;23;20096;-75
2021/05/04 03:21:54;;;;;;;3.88;3.38;;;5.30;99.90;;;;;;6123107;23;20076;-76
2021/05/04 03:24:25;;;;;;;4.00;3.47;;;5.50;99.90;;;;;;6123174;23;20018;-76
2021/05/04 03:26:51;;;;;;;4.40;3.53;;;5.70;99.90;;;;;;6098667;23;20060;-76
2021/05/04 03:29:18;;;;;;;3.95;3.47;;;5.90;99.90;;;;;;6122713;23;20048;-75
2021/05/04 03:31:44;;;;;;;5.15;3.78;;;5.90;99.90;;;;;;6124515;23;20042;-76
2021/05/04 03:34:15;;;;;;;4.78;3.90;;;6.00;99.90;;;;;;6125076;23;20014;-75
2021/05/04 03:36:41;;;;;;;4.70;4.15;;;6.20;99.90;;;;;;6122809;23;20022;-75
2021/05/04 03:39:07;;;;;;;4.70;3.88;;;6.20;99.90;;;;;;6122552;23;20029;-75
2021/05/04 03:41:34;;;;;;;3.70;3.30;;;6.30;99.90;;;;;;6098650;23;20022;-78
2021/05/04 03:44:00;;;;;;;3.80;3.45;;;6.50;99.90;;;;;;6098699;23;20046;-78
2021/05/04 03:46:32;;;;;;;4.47;3.80;;;6.60;99.90;;;;;;6122917;23;20046;-75
2021/05/04 03:49:04;;;;;;;4.10;3.63;;;6.60;99.90;;;;;;6124399;23;20101;-76
2021/05/04 03:51:35;;;;;;;5.78;3.50;;;6.70;99.90;;;;;;6124230;23;20387;-75
2021/05/04 03:54:02;;;;;;;3.63;3.13;;;6.70;99.90;;;;;;6124096;23;20049;-76
2021/05/04 03:56:28;;;;;;;4.47;3.75;;;6.70;99.90;;;;;;6125589;23;20045;-75
2021/05/04 03:58:59;;;;;;;4.95;3.65;;;6.70;99.90;;;;;;6123673;23;20113;-76
2021/05/04 04:01:26;;;;;;;5.00;3.95;;;6.70;99.90;;;;;;6124154;23;20455;-76
2021/05/04 04:03:57;;;;;;;3.80;3.40;;;6.70;99.90;;;;;;6124213;23;20482;-76
2021/05/04 04:06:23;;;;;;;4.38;3.55;;;6.80;99.90;;;;;;6123816;23;20101;-75
2021/05/04 04:08:50;;;;;;;5.70;3.22;;;6.80;99.90;;;;;;6123278;23;20025;-78
2021/05/04 04:11:21;;;;;;;4.88;3.85;;;6.80;99.90;;;;;;6125632;23;20042;-75
2021/05/04 04:13:48;;;;;;;4.90;3.40;;;6.80;99.90;;;;;;6099709;23;20467;-75
2021/05/04 04:16:19;;;;;;;4.47;3.70;;;6.90;99.90;;;;;;6124028;23;20018;-75
2021/05/04 04:18:45;;;;;;;3.67;3.28;;;6.90;99.90;;;;;;6123418;23;20519;-75
2021/05/04 04:21:12;;;;;;;6.47;3.63;;;6.90;99.90;;;;;;6124553;23;20026;-76
2021/05/04 04:23:38;;;;;;;4.13;3.28;;;6.90;99.90;;;;;;6124156;23;20056;-76
2021/05/04 04:26:09;;;;;;;5.28;3.50;;;7.00;99.90;;;;;;6121213;23;20451;-76
2021/05/04 04:28:40;;;;;;;5.47;3.47;;;7.00;99.90;;;;;;6122177;23;20105;-76
2021/05/04 04:31:07;;;;;;;3.50;3.20;;;7.10;99.90;;;;;;6124939;23;20479;-76
2021/05/04 04:33:38;;;;;;;4.68;3.78;;;7.00;99.90;;;;;;6123518;23;20034;-77
2021/05/04 04:36:09;;;;;;;4.45;3.45;;;7.10;99.90;;;;;;6124810;23;20049;-77
2021/05/04 04:38:40;;;;;;;4.20;3.50;;;7.10;99.90;;;;;;6123975;23;20022;-76
2021/05/04 04:41:12;;;;;;;5.80;3.58;;;7.20;99.90;;;;;;6123890;23;20444;-77
2021/05/04 04:43:43;;;;;;;3.88;3.45;;;7.20;99.90;;;;;;6124113;23;20470;-76
2021/05/04 04:46:09;;;;;;;4.30;3.38;;;7.20;99.90;;;;;;6123806;23;20022;-76
2021/05/04 04:48:35;;;;;;;4.75;2.92;;;7.20;99.90;;;;;;6121455;23;20065;-76
2021/05/04 04:51:07;;;;;;;3.92;3.03;;;7.30;99.90;;;;;;6125538;23;20422;-76
2021/05/04 04:53:38;;;;;;;4.97;3.63;;;7.30;99.90;;;;;;6124236;23;20042;-75
2021/05/04 04:56:04;;;;;;;3.42;3.03;;;7.30;99.90;;;;;;6123957;23;20021;-75
2021/05/04 04:58:35;;;;;;;6.07;3.97;;;7.40;99.90;;;;;;6123037;23;20049;-76
2021/05/04 05:01:07;;;;;;;4.63;3.22;;;7.40;99.90;;;;;;6123835;23;20057;-76
2021/05/04 05:03:38;;;;;;;3.38;3.05;;;7.50;99.90;;;;;;6124126;23;20037;-76
2021/05/04 05:06:09;;;;;;;3.95;2.75;;;7.60;99.90;;;;;;6125495;23;20021;-77
2021/05/04 05:08:40;;;;;;;3.13;2.83;;;7.60;99.90;;;;;;6123478;23;20042;-76
2021/05/04 05:11:07;;;;;;;3.67;3.28;;;7.70;99.90;;;;;;6123997;23;20022;-76
2021/05/04 05:13:38;;;;;;;3.22;2.92;;;7.80;99.90;;;;;;6124092;23;20014;-78
2021/05/04 05:16:09;;;;;;;3.65;2.95;;;7.90;99.90;;;;;;6123876;23;20025;-75
2021/05/04 05:18:36;;;;;;;4.93;3.05;;;8.00;99.90;;;;;;6123383;23;20027;-75
2021/05/04 05:21:02;;;;;;;5.45;3.22;;;8.10;99.90;;;;;;6123716;23;20056;-75
2021/05/04 05:23:33;;;;;;;4.15;3.25;;;8.20;99.90;;;;;;6121856;23;20021;-75
2021/05/04 05:26:05;;;;;;;4.05;3.03;;;8.30;99.90;;;;;;6123500;23;20105;-76
2021/05/04 05:28:39;;;;;;;4.18;2.80;;;8.40;99.90;;;;;;6122760;23;20018;-75
2021/05/04 05:31:07;;;;;;;3.28;2.85;;;8.50;99.90;;;;;;6123266;23;20393;-75
2021/05/04 05:33:38;;;;;;;3.00;2.65;;;8.60;99.90;;;;;;6123605;23;20021;-75
2021/05/04 05:36:05;;;;;;;3.00;2.70;;;8.60;99.90;;;;;;6123817;23;20053;-76
2021/05/04 05:38:31;;;;;;;3.53;2.70;;;8.70;99.90;;;;;;6123038;23;20025;-75
2021/05/04 05:41:03;;;;;;;3.70;2.97;;;8.70;99.90;;;;;;6123427;23;20053;-76
2021/05/04 05:43:29;;;;;;;4.07;2.85;;;8.80;99.90;;;;;;6123249;23;20030;-75
2021/05/04 05:46:02;;;;;;;3.03;2.72;;;8.90;99.90;;;;;;6122797;23;20045;-78
2021/05/04 05:48:29;;;;;;;3.20;2.85;;;9.00;99.90;;;;;;6116140;23;20503;-76
2021/05/04 05:51:00;;;;;;;3.25;2.92;;;9.10;99.90;;;;;;6118475;23;20052;-77
2021/05/04 05:53:32;;;;;;;4.72;2.70;;;9.10;99.90;;;;;;6123227;23;20037;-77
2021/05/04 05:55:58;;;;;;;3.33;2.30;;;9.20;99.90;;;;;;6121298;23;20580;-77
2021/05/04 05:58:25;;;;;;;3.53;2.90;;;9.20;99.90;;;;;;6124792;23;20053;-78
2021/05/04 06:00:58;;;;;;;3.17;2.58;;;9.30;99.90;;;;;;6123155;23;20065;-75
2021/05/04 06:03:30;;;;;;;3.10;2.40;;;9.40;99.90;;;;;;6121551;23;20022;-78
2021/05/04 06:06:01;;;;;;;2.97;2.67;;;9.40;99.90;;;;;;6120990;23;20085;-76
2021/05/04 06:08:29;;;;;;;3.05;2.72;;;9.50;99.90;;;;;;6122846;23;20018;-75
2021/05/04 06:10:55;;;;;;;3.15;2.75;;;9.50;99.90;;;;;;6120424;23;20053;-78
2021/05/04 06:13:22;;;;;;;2.63;2.40;;;9.60;99.90;;;;;;6121118;23;20059;-76
2021/05/04 06:15:48;;;;;;;3.55;2.72;;;9.60;99.90;;;;;;6118061;23;20481;-76
2021/05/04 06:18:15;;;;;;;4.60;2.72;;;9.70;99.90;;;;;;6123198;23;20455;-75
2021/05/04 06:20:44;;;;;;;3.63;2.50;;;9.70;99.90;;;;;;6123102;23;20053;-76
2021/05/04 06:23:15;;;;;;;3.00;2.58;;;9.80;99.90;;;;;;6121068;23;20077;-78
2021/05/04 06:25:47;;;;;;;2.80;2.25;;;9.90;99.90;;;;;;6124993;23;20089;-76
2021/05/04 06:28:13;;;;;;;3.17;2.58;;;10.00;99.90;;;;;;6122807;23;20053;-75
2021/05/04 06:30:45;;;;;;;2.90;2.63;;;10.00;99.90;;;;;;6123041;23;20025;-76
2021/05/04 06:33:13;;;;;;;3.58;2.65;;;10.20;99.90;;;;;;6123366;23;20056;-76
2021/05/04 06:35:42;;;;;;;4.20;2.30;;;10.20;99.90;;;;;;6123405;23;20022;-75
2021/05/04 06:38:13;;;;;;;3.08;2.72;;;10.40;99.90;;;;;;6121966;23;20454;-75
2021/05/04 06:40:47;;;;;;;7.45;2.45;;;10.40;99.90;;;;;;6122854;23;20360;-75
2021/05/04 06:43:13;;;;;;;3.50;2.30;;;10.50;99.90;;;;;;6123202;23;20104;-77
2021/05/04 06:45:40;;;;;;;3.22;2.65;;;10.50;99.90;;;;;;6121881;23;20517;-76
2021/05/04 06:48:12;;;;;;;2.80;2.60;;;10.50;99.90;;;;;;6123116;23;20073;-76
2021/05/04 06:50:43;;;;;;;3.00;2.60;;;10.60;99.90;;;;;;6122821;23;20065;-76
2021/05/04 06:53:09;;;;;;;4.68;2.70;;;10.60;99.90;;;;;;6122550;23;20049;-77
2021/05/04 06:55:41;;;;;;;2.78;2.33;;;10.60;99.90;;;;;;6122104;23;20050;-75
2021/05/04 06:58:12;;;;;;;2.90;2.42;;;10.60;99.90;;;;;;6120664;23;20100;-79
2021/05/04 07:00:43;;;;;;;2.67;2.40;;;10.70;99.90;;;;;;6121300;23;20026;-76
2021/05/04 07:03:10;;;;;;;2.40;2.20;;;10.80;99.90;;;;;;6123180;23;20018;-76
2021/05/04 07:05:41;;;;;;;2.92;2.58;;;10.90;99.90;;;;;;6123302;23;20451;-75
2021/05/04 07:08:12;;;;;;;2.88;2.53;;;10.90;99.90;;;;;;6122485;23;20515;-76
2021/05/04 07:10:38;;;;;;;2.70;2.35;;;11.10;99.90;;;;;;6121857;23;20670;-76
2021/05/04 07:13:05;;;;;;;3.70;2.47;;;11.20;99.90;;;;;;6122452;23;20360;-76
2021/05/04 07:15:36;;;;;;;4.07;2.70;;;11.40;99.90;;;;;;6099282;23;20046;-76
2021/05/04 07:18:09;;;;;;;3.75;2.38;;;11.50;99.90;;;;;;6121675;23;20076;-80
2021/05/04 07:20:37;;;;;;;2.60;2.40;;;11.60;99.70;;;;;;6123399;23;20080;-77
2021/05/04 07:23:07;;;;;;;3.83;2.10;;;11.60;99.00;;;;;;6123706;23;20112;-79
2021/05/04 07:25:39;;;;;;;3.42;2.28;;;11.70;98.20;;;;;;6125938;23;20022;-77
2021/05/04 07:28:11;;;;;;;2.92;2.38;;;11.70;97.80;;;;;;6123471;23;20469;-76
2021/05/04 07:30:41;;;;;;;3.75;2.63;;;11.80;97.80;;;;;;6123090;23;20022;-77
2021/05/04 07:33:08;;;;;;;4.35;2.60;;;11.80;97.50;;;;;;6125899;23;20045;-76
2021/05/04 07:35:34;;;;;;;4.35;3.25;;;11.80;95.60;;;;;;6124396;23;20018;-76
2021/05/04 07:38:05;;;;;;;2.50;2.30;;;11.90;97.40;;;;;;6124323;23;20018;-77
2021/05/04 07:40:32;;;;;;;3.80;2.47;;;11.90;94.90;;;;;;6124287;23;20052;-76
2021/05/04 07:42:58;;;;;;;5.75;2.63;;;11.90;96.50;;;;;;6124322;23;20053;-76
2021/05/04 07:45:29;;;;;;;3.83;2.40;;;11.90;95.50;;;;;;6124588;23;20388;-77
2021/05/04 07:47:58;;;;;;;2.88;2.55;;;11.90;96.20;;;;;;6122599;23;20459;-77
2021/05/04 07:50:24;;;;;;;3.30;2.65;;;12.00;96.00;;;;;;6124061;23;20014;-77
2021/05/04 07:52:56;;;;;;;2.75;2.28;;;12.00;95.80;;;;;;6123998;23;20041;-78
2021/05/04 07:55:28;;;;;;;2.92;2.55;;;12.10;96.70;;;;;;6123766;23;20624;-74
2021/05/04 07:57:59;;;;;;;2.83;2.50;;;12.20;95.80;;;;;;6122693;23;20018;-77
2021/05/04 08:00:26;;;;;;;3.35;2.53;;;12.30;95.50;;;;;;6123772;23;20022;-77
2021/05/04 08:02:57;;;;;;;2.33;2.13;;;12.30;94.90;;;;;;6124582;23;20028;-77
2021/05/04 08:05:23;;;;;;;3.85;2.58;;;12.30;94.30;;;;;;6124355;23;20021;-77
2021/05/04 08:07:50;;;;;;;4.50;2.65;;;12.40;94.40;;;;;;6125618;23;20013;-76
2021/05/04 08:10:21;;;;;;;3.90;2.72;;;12.40;93.20;;;;;;6123216;23;20351;-77
2021/05/04 08:12:47;;;;;;;4.97;2.83;;;12.40;94.00;;;;;;6124057;23;20340;-77
2021/05/04 08:15:20;;;;;;;4.13;2.88;;;12.50;93.10;;;;;;6124053;23;20096;-79
2021/05/04 08:18:00;;;;;;;4.35;2.70;;;12.60;91.50;;;;;;6124072;23;20109;-77
2021/05/04 08:20:32;;;;;;;2.88;2.40;;;12.70;92.10;;;;;;6123514;23;20029;-75
2021/05/04 08:23:00;;;;;;;3.80;2.60;;;12.80;92.10;;;;;;6123993;23;20056;-77
2021/05/04 08:25:27;;;;;;;3.90;2.42;;;13.00;91.70;;;;;;6125225;23;20507;-74
2021/05/04 08:27:53;;;;;;;2.53;2.33;;;13.10;91.00;;;;;;6123631;23;20050;-75
2021/05/04 08:30:21;;;;;;;2.78;2.30;;;13.10;89.90;;;;;;6123625;23;20022;-76
2021/05/04 08:32:49;;;;;;;3.55;2.67;;;13.10;90.50;;;;;;6125296;23;20037;-75
2021/05/04 08:35:16;;;;;;;5.40;2.50;;;13.10;88.70;;;;;;6123813;23;20056;-75
2021/05/04 08:37:47;;;;;;;3.67;2.35;;;13.20;90.90;;;;;;6123660;23;20049;-75
2021/05/04 08:40:13;;;;;;;4.50;2.38;;;13.30;90.20;;;;;;6119466;23;20049;-75
2021/05/04 08:42:40;;;;;;;2.45;2.00;;;13.30;85.90;;;;;;6123370;23;20060;-74
2021/05/04 08:45:13;;;;;;;2.55;2.15;;;13.30;88.00;;;;;;6123758;23;20018;-75
2021/05/04 08:47:44;;;;;;;3.55;2.17;;;13.50;90.60;;;;;;6125460;23;20113;-75
2021/05/04 08:50:19;;;;;;;3.17;2.17;;;13.50;85.70;;;;;;6123582;23;20056;-75
2021/05/04 08:52:46;;;;;;;2.35;1.90;;;13.60;87.50;;;;;;6147926;23;20447;-75
2021/05/04 08:55:17;;;;;;;2.20;2.00;;;13.70;84.60;;;;;;6123654;23;20018;-77
2021/05/04 08:57:49;;;;;;;3.28;2.00;;;13.70;85.00;;;;;;6124113;23;20045;-75
2021/05/04 09:00:15;;;;;;;2.90;2.00;;;13.80;84.70;;;;;;6122585;23;20695;-75
2021/05/04 09:03:12;;;;;;;2.95;2.13;;;13.80;81.00;;;;;;6145412;23;20022;-78
2021/05/04 09:05:41;;;;;;;2.22;1.70;;;13.80;79.50;;;;;;6123698;23;20399;-75
2021/05/04 09:08:57;;;;;;;2.17;1.83;;;13.90;79.40;;;;;;6124064;23;20049;-75
2021/05/04 09:14:10;;;;;;;5.68;2.03;;;13.80;76.80;;;;;;6148144;23;20448;-75
2021/05/04 09:16:54;;;;;;;6.93;2.20;;;13.80;79.70;;;;;;6123620;23;20049;-74
2021/05/04 09:22:00;;;;;;;2.67;1.70;;;13.80;77.30;;;;;;6123031;23;20459;-75
2021/05/04 09:24:30;;;;;;;2.70;1.95;;;13.80;78.70;;;;;;6099047;23;20113;-74
2021/05/04 09:27:05;;;;;;;3.70;2.03;;;13.80;80.50;;;;;;6124823;23;20435;-75
2021/05/04 09:29:43;;;;;;;3.17;1.73;;;13.90;79.10;;;;;;6122538;23;20422;-75
2021/05/04 09:32:11;;;;;;;2.20;1.98;;;14.00;80.30;;;;;;6123229;23;20053;-77
2021/05/04 09:34:50;;;;;;;3.70;2.00;;;14.00;81.30;;;;;;6123149;23;20092;-75
2021/05/04 09:37:33;;;;;;;2.53;1.75;;;14.10;78.50;;;;;;6146016;23;20404;-77
2021/05/04 09:40:28;;;;;;;2.45;1.75;;;14.20;79.70;;;;;;6122312;23;20470;-75
2021/05/04 09:43:07;;;;;;;2.20;2.00;;;14.30;79.60;;;;;;6122952;23;20105;-78
2021/05/04 09:45:55;;;;;;;2.58;1.98;;;14.40;79.40;;;;;;6123025;23;20096;-75
2021/05/04 09:48:34;;;;;;;2.65;2.20;;;14.50;79.70;;;;;;6147498;23;20526;-76
2021/05/04 09:51:17;;;;;;;2.60;2.25;;;14.70;80.10;;;;;;6123346;23;20352;-77
2021/05/04 09:56:34;;;;;;;4.70;1.90;;;14.90;79.50;;;;;;6122759;23;20018;-75
2021/05/04 09:59:05;;;;;;;2.78;2.30;;;15.10;80.70;;;;;;6122393;23;20028;-75
2021/05/04 10:01:31;;;;;;;4.63;2.92;;;15.10;78.00;;;;;;6122422;23;20530;-75
2021/05/04 10:04:00;;;;;;;2.67;2.40;;;15.20;78.90;;;;;;6122308;23;20699;-75
2021/05/04 10:06:27;;;;;;;3.22;2.67;;;15.10;75.40;;;;;;6122524;23;20049;-76
2021/05/04 10:08:53;;;;;;;2.25;1.98;;;15.10;79.10;;;;;;6122370;23;20056;-75
2021/05/04 10:11:22;;;;;;;2.40;2.15;;;15.20;78.80;;;;;;6122218;23;20052;-75
2021/05/04 10:13:56;;;;;;;2.88;2.17;;;15.30;81.80;;;;;;6123025;23;20022;-74
2021/05/04 10:16:30;;;;;;;6.22;2.65;;;15.40;80.30;;;;;;6122750;23;20022;-76
2021/05/04 10:19:05;;;;;;;3.00;2.28;;;15.50;82.40;;;;;;6146106;23;20452;-77
2021/05/04 10:21:31;;;;;;;2.78;2.58;;;15.30;74.60;;;;;;6122502;23;20578;-74
2021/05/04 10:23:58;;;;;;;3.25;2.40;;;15.20;75.00;;;;;;6122712;23;20060;-74
2021/05/04 10:26:27;;;;;;;5.50;2.45;;;15.20;76.50;;;;;;6124329;23;20045;-74
2021/05/04 10:29:04;;;;;;;3.83;2.60;;;15.10;77.70;;;;;;6124156;23;20026;-74
2021/05/04 10:31:39;;;;;;;3.15;2.35;;;15.10;77.00;;;;;;6146311;23;20351;-75
2021/05/04 10:34:35;;;;;;;3.35;2.05;;;15.20;76.10;;;;;;6098025;23;20021;-73
2021/05/04 10:37:14;;;;;;;4.13;2.05;;;15.30;77.20;;;;;;6093124;23;20443;-73
2021/05/04 10:39:40;;;;;;;2.55;2.10;;;15.30;78.30;;;;;;6122026;23;20042;-73
2021/05/04 10:42:10;;;;;;;4.80;1.90;;;15.40;77.80;;;;;;6122582;23;20463;-77
2021/05/04 10:45:06;;;;;;;3.03;2.15;;;15.40;76.40;;;;;;6122231;23;20022;-73
2021/05/04 10:47:44;;;;;;;3.63;2.35;;;15.50;76.40;;;;;;6079914;23;20101;-74
2021/05/04 10:50:13;;;;;;;9.75;3.08;;;15.60;81.70;;;;;;6122004;23;20018;-73
2021/05/04 10:52:55;;;;;;;2.75;1.90;;;15.60;77.70;;;;;;6122656;23;20080;-73
2021/05/04 10:55:52;;;;;;;2.88;2.20;;;15.60;80.70;;;;;;6124117;23;20018;-73
2021/05/04 10:58:29;;;;;;;2.10;1.90;;;15.60;78.20;;;;;;6123946;23;20471;-77
2021/05/04 11:01:00;;;;;;;2.67;2.08;;;15.70;77.40;;;;;;6122259;23;20049;-76
2021/05/04 11:03:33;;;;;;;3.28;2.03;;;15.80;76.30;;;;;;6122448;23;20029;-74
2021/05/04 11:06:06;;;;;;;3.30;2.13;;;15.80;75.80;;;;;;6124100;23;20473;-74
2021/05/04 11:08:41;;;;;;;2.42;2.00;;;15.80;73.80;;;;;;6122380;23;20344;-73
2021/05/04 11:11:40;;;;;;;3.38;1.73;;;15.90;75.30;;;;;;6122319;23;20093;-73
2021/05/04 11:14:14;;;;;;;3.50;1.80;;;16.10;79.20;;;;;;6119536;23;20459;-76
2021/05/04 11:16:52;;;;;;;3.08;1.63;;;16.30;70.80;;;;;;6117284;23;20101;-76
2021/05/04 11:19:33;;;;;;;2.38;1.45;;;16.20;70.70;;;;;;6115831;23;20026;-83
2021/05/04 11:21:59;;;;;;;4.13;1.95;;;16.30;72.70;;;;;;6092903;23;20033;-79
2021/05/04 11:24:29;;;;;;;2.97;1.92;;;16.30;70.80;;;;;;6121403;23;20474;-77
2021/05/04 11:27:00;;;;;;;3.90;2.63;;;16.30;68.50;;;;;;6121093;23;20454;-79
2021/05/04 11:29:32;;;;;;;3.25;1.98;;;16.20;69.00;;;;;;6121839;23;20013;-77
2021/05/04 11:32:15;;;;;;;2.58;2.10;;;16.20;66.60;;;;;;6097639;23;20072;-76
2021/05/04 11:34:51;;;;;;;1.92;1.73;;;16.10;65.40;;;;;;6121733;23;20359;-84
2021/05/04 11:37:21;;;;;;;3.63;2.80;;;16.10;65.30;;;;;;6121714;23;20014;-77
2021/05/04 11:39:52;;;;;;;2.08;1.77;;;16.20;67.20;;;;;;6121244;23;20018;-76
2021/05/04 11:42:26;;;;;;;1.70;1.58;;;16.20;65.70;;;;;;6120824;23;20048;-77
2021/05/04 11:44:53;;;;;;;3.70;1.70;;;16.20;65.10;;;;;;6097201;23;20676;-77
2021/05/04 11:47:27;;;;;;;2.80;1.80;;;16.30;66.10;;;;;;6121604;23;20053;-77
2021/05/04 11:50:07;;;;;;;1.50;1.40;;;16.40;67.00;;;;;;6120996;23;20072;-77
2021/05/04 11:52:41;;;;;;;2.38;1.60;;;16.40;62.00;;;;;;6120909;23;20048;-82
2021/05/04 11:55:22;;;;;;;;;;;16.40;63.60;;;;;;6123461;23;20056;-77
2021/05/04 11:58:03;;;;;;;2.20;1.63;;;16.50;62.10;;;;;;6121538;23;19916;-77
2021/05/04 12:00:32;;;;;;;2.45;1.75;;;16.50;62.30;;;;;;6121483;23;20026;-72
2021/05/04 12:03:07;;;;;;;3.85;2.03;;;16.50;62.90;;;;;;6121705;23;20482;-74
2021/05/04 12:05:40;;;;;;;4.55;1.73;;;16.50;62.90;;;;;;6121961;23;20036;-73
2021/05/04 12:08:13;;;;;;;1.90;1.67;;;16.70;63.00;;;;;;6124024;23;20024;-73
2021/05/04 12:10:48;;;;;;;3.85;1.80;;;16.80;64.60;;;;;;6123462;23;20022;-73
2021/05/04 12:13:25;;;;;;;3.55;1.90;;;16.90;60.00;;;;;;6123807;23;20025;-74
2021/05/04 12:15:57;;;;;;;2.45;1.98;;;16.90;60.60;;;;;;6123940;23;20514;-73
2021/05/04 12:18:32;;;;;;;3.03;1.75;;;16.80;61.30;;;;;;6122989;23;20363;-74
2021/05/04 12:21:07;;;;;;;2.03;1.58;;;17.00;59.10;;;;;;6123614;23;20022;-73
2021/05/04 12:23:41;;;;;;;2.72;1.58;;;17.10;58.90;;;;;;6122653;23;20022;-75
2021/05/04 12:26:18;;;;;;;7.85;2.05;;;17.10;59.70;;;;;;6123585;23;20030;-73
2021/05/04 12:28:47;;;;;;;1.98;1.60;;;17.10;58.70;;;;;;6124886;23;20025;-73
2021/05/04 12:31:55;;;;;;;5.82;1.98;;;16.90;57.90;;;;;;6113473;23;20293;-91
2021/05/04 12:35:35;;;;;;;2.50;1.52;;;16.70;57.30;;;;;;6067108;23;20030;-92
2021/05/04 12:38:31;;;;;;;4.22;2.10;;;16.80;58.20;;;;;;6067394;23;20043;-89
2021/05/04 12:41:12;;;;;;;3.33;1.75;;;16.80;57.20;;;;;;6044703;23;20022;-89
2021/05/04 12:44:05;;;;;;;2.10;1.77;;;16.90;57.10;;;;;;6066841;23;20082;-88
2021/05/04 12:46:32;;;;;;;4.35;1.80;;;16.90;56.00;;;;;;6067356;23;20517;-88
2021/05/04 12:49:03;;;;;;;2.30;1.67;;;16.80;56.00;;;;;;6043525;23;20019;-89
2021/05/04 12:52:51;;;;;;;4.03;1.60;;;16.80;56.40;;;;;;6068311;23;20469;-90
2021/05/04 12:56:23;;;;;;;1.98;1.50;;;16.70;56.00;;;;;;6034517;23;20091;-89
2021/05/04 12:59:10;;;;;;;2.70;1.70;;;16.70;57.00;;;;;;6062967;23;20027;-89
2021/05/04 13:03:04;;;;;;;;;;;;;;;;;;;;;
2021/05/04 13:06:42;;;;;;;2.80;1.50;;;16.70;55.40;;;;;;6026219;23;20460;-90
2021/05/04 13:17:31;;;;;;;1.95;1.80;;;16.50;53.30;;;;;;6065685;23;20110;-89
2021/05/04 13:20:27;;;;;;;2.42;1.40;;;16.40;52.90;;;;;;6065509;23;20026;-89
2021/05/04 13:31:35;;;;;;;3.53;2.05;;;16.40;52.50;;;;;;6065929;23;20449;-88
2021/05/04 13:34:10;;;;;;;4.20;2.70;;;16.30;52.90;;;;;;6066654;23;20019;-89
2021/05/04 13:36:41;;;;;;;4.57;2.38;;;16.20;52.90;;;;;;6066979;23;20019;-90
2021/05/04 13:40:19;;;;;;;3.17;2.58;;;16.10;54.10;;;;;;6067768;23;20015;-89
2021/05/04 13:47:48;;;;;;;1.85;1.58;;;16.00;55.40;;;;;;6066691;23;20086;-89
2021/05/04 13:50:21;;;;;;;2.42;1.60;;;16.00;54.60;;;;;;6069244;23;20086;-88
2021/05/04 13:57:33;;;;;;;3.50;1.60;;;16.00;55.80;;;;;;6068918;23;20014;-88